Time;durP1;ratioP1;P1;durP2;ratioP2;P2;SDS_P1;SDS_P2;PMS_P1;PMS_P2;Temp;Humidity;BMP_temperature;BMP_pressure;BME280_temperature;BME280_humidity;BME280_pressure;Samples;Min_cycle;Max_cycle;Signal;HPM_P1;HPM_P2
2023/08/18 00:01:59;;;;;;;6.00;1.30;;;24.50;69.20;;;;;;5054596;28;20048;-35
2023/08/18 00:04:25;;;;;;;6.47;1.53;;;24.50;69.30;;;;;;5058651;28;20025;-35
2023/08/18 00:06:52;;;;;;;8.82;1.90;;;24.50;69.40;;;;;;5048931;28;20184;-35
2023/08/18 00:09:18;;;;;;;8.23;1.80;;;24.50;69.40;;;;;;5051309;28;20068;-35
2023/08/18 00:11:44;;;;;;;5.93;1.83;;;24.60;69.60;;;;;;5052788;28;20486;-35
2023/08/18 00:14:10;;;;;;;6.90;1.30;;;24.60;69.60;;;;;;5059901;28;20033;-35
2023/08/18 00:16:36;;;;;;;2.20;1.00;;;24.50;69.70;;;;;;5053491;28;20097;-35
2023/08/18 00:19:03;;;;;;;2.08;1.27;;;24.60;69.70;;;;;;5054866;28;20026;-35
2023/08/18 00:21:29;;;;;;;2.63;1.00;;;24.60;69.90;;;;;;5060316;28;20032;-35
2023/08/18 00:23:55;;;;;;;2.70;1.10;;;24.60;69.90;;;;;;5056876;28;20035;-35
2023/08/18 00:26:21;;;;;;;1.45;0.90;;;24.60;69.90;;;;;;5058909;28;20048;-35
2023/08/18 00:28:47;;;;;;;1.20;0.90;;;24.60;70.60;;;;;;5060733;28;20025;-35
2023/08/18 00:31:13;;;;;;;1.70;0.83;;;24.60;69.60;;;;;;5053088;28;20421;-35
2023/08/18 00:33:40;;;;;;;2.67;1.00;;;24.60;69.40;;;;;;5053553;28;20098;-35
2023/08/18 00:36:06;;;;;;;1.98;0.98;;;24.60;69.60;;;;;;5057469;28;20033;-35
2023/08/18 00:38:32;;;;;;;1.10;0.90;;;24.60;69.50;;;;;;5048844;28;20033;-35
2023/08/18 00:40:58;;;;;;;2.90;1.02;;;24.60;69.60;;;;;;5050577;28;20048;-36
2023/08/18 00:43:24;;;;;;;1.75;0.93;;;24.60;69.60;;;;;;5050770;28;20076;-35
2023/08/18 00:45:50;;;;;;;1.83;0.85;;;24.60;70.00;;;;;;5061797;28;20059;-35
2023/08/18 00:48:17;;;;;;;1.40;0.93;;;24.60;69.80;;;;;;5050206;28;20032;-35
2023/08/18 00:50:44;;;;;;;2.40;1.10;;;24.60;69.70;;;;;;5061719;28;20810;-35
2023/08/18 00:53:10;;;;;;;2.72;1.08;;;24.60;69.80;;;;;;5043424;28;20093;-35
2023/08/18 00:55:36;;;;;;;1.13;0.90;;;24.60;69.90;;;;;;5050384;28;20093;-35
2023/08/18 00:58:02;;;;;;;1.20;1.10;;;24.70;70.00;;;;;;5044546;28;20048;-35
2023/08/18 01:00:29;;;;;;;1.23;1.13;;;24.60;69.90;;;;;;5069295;28;20041;-35
2023/08/18 01:02:55;;;;;;;3.35;1.33;;;24.60;70.00;;;;;;5060013;28;20278;-35
2023/08/18 01:05:21;;;;;;;1.27;0.90;;;24.70;70.10;;;;;;5062854;28;20021;-35
2023/08/18 01:07:48;;;;;;;1.20;1.00;;;24.70;70.20;;;;;;5073734;28;20070;-35
2023/08/18 01:10:14;;;;;;;1.13;0.93;;;24.70;70.10;;;;;;5063639;28;20041;-35
2023/08/18 01:13:11;;;;;;;1.93;1.10;;;24.70;70.10;;;;;;5066015;28;20080;-35
2023/08/18 01:15:39;;;;;;;0.90;0.90;;;24.70;70.00;;;;;;5064002;28;20029;-35
2023/08/18 01:18:06;;;;;;;1.00;0.95;;;24.70;69.90;;;;;;5077007;28;20079;-35
2023/08/18 01:20:32;;;;;;;1.20;1.10;;;24.70;69.90;;;;;;5084673;28;20033;-34
2023/08/18 01:22:59;;;;;;;1.08;0.98;;;24.70;69.60;;;;;;5049567;28;20274;-35
2023/08/18 01:25:25;;;;;;;;;;;24.70;69.40;;;;;;5055198;28;20072;-35
2023/08/18 01:27:52;;;;;;;1.08;0.98;;;24.70;69.60;;;;;;5059564;28;19935;-35
2023/08/18 01:30:19;;;;;;;1.88;1.00;;;24.70;69.60;;;;;;5045351;28;20041;-36
2023/08/18 01:33:15;;;;;;;0.82;0.80;;;24.70;70.00;;;;;;5038975;28;20036;-35
2023/08/18 01:35:41;;;;;;;1.10;1.00;;;24.70;70.30;;;;;;5038374;28;20045;-35
2023/08/18 01:38:08;;;;;;;1.98;1.10;;;24.70;70.60;;;;;;5036791;28;20041;-35
2023/08/18 01:40:34;;;;;;;1.10;1.00;;;24.70;70.70;;;;;;5046646;28;20082;-35
2023/08/18 01:43:00;;;;;;;0.97;0.90;;;24.70;71.00;;;;;;5039451;28;20029;-35
2023/08/18 01:45:26;;;;;;;0.90;0.90;;;24.70;71.00;;;;;;5023958;28;20366;-35
2023/08/18 01:47:52;;;;;;;0.90;0.90;;;24.70;71.10;;;;;;5053370;28;20064;-35
2023/08/18 01:50:19;;;;;;;1.30;1.00;;;24.70;71.30;;;;;;5055182;28;20037;-35
2023/08/18 01:52:45;;;;;;;1.00;0.90;;;24.70;71.30;;;;;;5057861;28;20033;-35
2023/08/18 01:55:11;;;;;;;1.00;0.93;;;24.70;71.20;;;;;;5062606;28;20036;-35
2023/08/18 01:57:38;;;;;;;1.92;1.15;;;24.70;70.90;;;;;;5052825;28;20064;-35
2023/08/18 02:00:04;;;;;;;1.60;1.00;;;24.70;70.60;;;;;;5061353;28;20028;-35
2023/08/18 02:02:31;;;;;;;2.67;1.10;;;24.70;70.00;;;;;;5049429;28;20521;-35
2023/08/18 02:04:57;;;;;;;1.02;0.90;;;24.70;69.60;;;;;;5056962;28;20029;-35
2023/08/18 02:07:24;;;;;;;1.10;1.00;;;24.70;69.40;;;;;;5055478;28;20497;-35
2023/08/18 02:09:50;;;;;;;0.98;0.98;;;24.70;69.30;;;;;;5061779;28;20041;-35
2023/08/18 02:12:16;;;;;;;1.40;1.02;;;24.70;69.40;;;;;;5054332;28;20037;-35
2023/08/18 02:14:42;;;;;;;1.23;1.10;;;24.70;69.40;;;;;;5053584;28;20037;-35
2023/08/18 02:17:08;;;;;;;0.77;0.77;;;24.70;69.70;;;;;;5054145;28;20572;-35
2023/08/18 02:19:35;;;;;;;1.15;1.00;;;24.70;69.50;;;;;;5051743;28;20025;-35
2023/08/18 02:22:01;;;;;;;0.90;0.90;;;24.70;69.50;;;;;;5052189;28;20089;-35
2023/08/18 02:24:28;;;;;;;1.17;0.90;;;24.70;69.50;;;;;;5055515;28;20285;-35
2023/08/18 02:26:55;;;;;;;1.10;1.00;;;24.70;69.40;;;;;;5049082;28;20065;-34
2023/08/18 02:29:22;;;;;;;1.10;1.00;;;24.70;69.60;;;;;;5053679;28;20030;-35
2023/08/18 02:31:49;;;;;;;0.80;0.80;;;24.70;69.60;;;;;;5034618;28;20060;-35
2023/08/18 02:34:15;;;;;;;1.15;1.05;;;24.60;69.40;;;;;;5056308;28;20048;-35
2023/08/18 02:36:41;;;;;;;0.75;0.75;;;24.70;69.40;;;;;;5061603;28;20044;-35
2023/08/18 02:39:07;;;;;;;1.10;1.00;;;24.70;69.40;;;;;;5062564;28;20025;-35
2023/08/18 02:41:33;;;;;;;1.40;1.20;;;24.70;69.40;;;;;;5058372;28;20108;-35
2023/08/18 02:44:03;;;;;;;1.10;1.00;;;24.70;69.50;;;;;;5052402;28;20041;-34
2023/08/18 02:46:31;;;;;;;1.05;1.00;;;24.60;69.60;;;;;;5047918;28;20103;-35
2023/08/18 02:48:57;;;;;;;1.10;1.10;;;24.60;69.70;;;;;;5055095;28;20160;-34
2023/08/18 02:51:23;;;;;;;1.30;1.20;;;24.60;69.60;;;;;;5059915;28;20029;-35
2023/08/18 02:53:50;;;;;;;1.13;1.02;;;24.70;69.70;;;;;;5057609;28;20028;-35
2023/08/18 02:56:16;;;;;;;1.00;1.00;;;24.60;69.80;;;;;;5060974;28;20044;-35
2023/08/18 02:58:42;;;;;;;1.00;1.00;;;24.60;69.90;;;;;;5061678;28;20040;-35
2023/08/18 03:01:08;;;;;;;1.08;0.98;;;24.60;70.00;;;;;;5054373;28;20048;-34
2023/08/18 03:03:35;;;;;;;1.20;0.83;;;24.60;70.00;;;;;;5055793;28;20025;-36
2023/08/18 03:06:02;;;;;;;1.45;1.08;;;24.60;70.10;;;;;;5061366;28;20096;-35
2023/08/18 03:08:28;;;;;;;1.38;1.27;;;24.60;70.30;;;;;;5061768;28;20117;-34
2023/08/18 03:10:59;;;;;;;1.00;1.00;;;24.60;70.20;;;;;;5061567;28;20029;-35
2023/08/18 03:13:25;;;;;;;1.05;1.05;;;24.60;70.20;;;;;;5040992;28;20060;-35
2023/08/18 03:15:51;;;;;;;1.00;1.00;;;24.60;70.20;;;;;;5054903;28;20037;-35
2023/08/18 03:18:18;;;;;;;1.20;1.10;;;24.60;70.20;;;;;;5052457;28;20744;-35
2023/08/18 03:20:46;;;;;;;0.90;0.90;;;24.60;70.20;;;;;;5036361;28;20041;-35
2023/08/18 03:23:15;;;;;;;1.20;1.00;;;24.60;70.20;;;;;;5059739;28;20055;-35
2023/08/18 03:25:42;;;;;;;1.13;1.00;;;24.60;70.20;;;;;;5061366;28;20025;-35
2023/08/18 03:28:09;;;;;;;1.67;1.13;;;24.60;70.20;;;;;;5059992;28;20036;-34
2023/08/18 03:30:38;;;;;;;1.13;1.02;;;24.60;70.30;;;;;;5057594;28;20542;-35
2023/08/18 03:33:05;;;;;;;1.20;1.10;;;24.60;70.30;;;;;;5051615;28;20113;-35
2023/08/18 03:35:32;;;;;;;1.00;0.90;;;24.60;70.30;;;;;;5054200;28;20048;-35
2023/08/18 03:38:01;;;;;;;0.95;0.82;;;24.60;70.30;;;;;;5054351;28;20037;-35
2023/08/18 03:40:27;;;;;;;1.08;0.95;;;24.50;70.30;;;;;;5060362;28;20029;-35
2023/08/18 03:42:53;;;;;;;0.90;0.90;;;24.60;70.40;;;;;;5060607;28;20029;-35
2023/08/18 03:45:19;;;;;;;1.42;1.10;;;24.50;70.30;;;;;;5057244;28;20037;-35
2023/08/18 03:47:46;;;;;;;1.30;1.08;;;24.50;70.40;;;;;;5042556;28;20045;-35
2023/08/18 03:50:13;;;;;;;1.03;1.00;;;24.50;70.50;;;;;;5059457;28;20052;-36
2023/08/18 03:52:39;;;;;;;0.90;0.90;;;24.50;70.60;;;;;;5054962;28;20040;-35
2023/08/18 03:55:06;;;;;;;1.23;1.10;;;24.50;70.60;;;;;;5029749;28;20037;-35
2023/08/18 03:57:32;;;;;;;1.05;0.98;;;24.50;70.60;;;;;;5044405;28;20029;-35
2023/08/18 03:59:58;;;;;;;1.10;0.98;;;24.50;70.60;;;;;;5049703;28;20100;-35
2023/08/18 04:02:24;;;;;;;1.30;1.20;;;24.50;70.50;;;;;;5044906;28;20025;-35
2023/08/18 04:04:50;;;;;;;1.17;1.08;;;24.50;70.60;;;;;;5045342;28;20036;-36
2023/08/18 04:07:17;;;;;;;1.13;0.95;;;24.50;70.70;;;;;;5046919;28;20044;-35
2023/08/18 04:09:43;;;;;;;1.95;1.45;;;24.50;70.80;;;;;;5049302;28;20048;-35
2023/08/18 04:12:10;;;;;;;1.20;1.10;;;24.50;70.80;;;;;;5044550;28;20037;-35
2023/08/18 04:14:37;;;;;;;1.55;1.27;;;24.50;70.70;;;;;;5049024;28;20040;-35
2023/08/18 04:17:03;;;;;;;1.30;1.20;;;24.50;70.80;;;;;;5050705;28;20056;-35
2023/08/18 04:19:29;;;;;;;1.77;1.20;;;24.50;70.90;;;;;;5043122;28;20053;-35
2023/08/18 04:21:56;;;;;;;1.20;1.10;;;24.40;70.80;;;;;;5047824;28;20033;-35
2023/08/18 04:24:22;;;;;;;1.20;1.10;;;24.40;70.90;;;;;;5047770;28;20029;-35
2023/08/18 04:26:48;;;;;;;1.50;1.40;;;24.50;71.00;;;;;;5048713;28;20105;-35
2023/08/18 04:29:14;;;;;;;1.30;1.20;;;24.40;70.90;;;;;;5048911;28;20601;-35
2023/08/18 04:31:40;;;;;;;1.10;1.10;;;24.40;71.00;;;;;;5052000;28;20037;-35
2023/08/18 04:34:07;;;;;;;1.50;1.40;;;24.40;71.00;;;;;;5059058;28;20136;-35
2023/08/18 04:36:33;;;;;;;1.30;1.20;;;24.40;71.10;;;;;;5065152;28;20051;-35
2023/08/18 04:38:59;;;;;;;1.07;1.00;;;24.40;71.10;;;;;;5065567;28;20112;-35
2023/08/18 04:41:26;;;;;;;1.47;1.20;;;24.40;71.20;;;;;;5064487;28;20054;-34
2023/08/18 04:43:52;;;;;;;1.27;1.17;;;24.40;71.20;;;;;;5064383;28;20021;-36
2023/08/18 04:46:18;;;;;;;1.48;1.20;;;24.40;71.20;;;;;;5071454;28;20044;-35
2023/08/18 04:48:44;;;;;;;1.80;1.13;;;24.40;71.30;;;;;;5060234;28;20033;-35
2023/08/18 04:51:10;;;;;;;1.15;1.15;;;24.40;71.30;;;;;;5066348;28;20049;-35
2023/08/18 04:53:37;;;;;;;1.30;1.20;;;24.30;71.10;;;;;;5065560;28;20106;-35
2023/08/18 04:56:03;;;;;;;1.17;1.08;;;24.40;71.20;;;;;;5061000;28;20051;-35
2023/08/18 04:58:29;;;;;;;1.05;1.00;;;24.30;71.20;;;;;;5061880;28;20025;-35
2023/08/18 05:00:59;;;;;;;1.30;1.20;;;24.30;71.50;;;;;;5064632;28;20039;-35
2023/08/18 05:03:25;;;;;;;1.42;1.33;;;24.30;71.40;;;;;;5069075;28;20040;-35
2023/08/18 05:06:08;;;;;;;1.50;1.40;;;24.30;71.60;;;;;;5070959;28;20033;-35
2023/08/18 05:08:34;;;;;;;0.98;0.98;;;24.30;71.60;;;;;;5062983;28;20040;-35
2023/08/18 05:11:05;;;;;;;1.42;1.33;;;24.30;71.70;;;;;;5064558;28;20038;-35
2023/08/18 05:13:32;;;;;;;1.10;1.00;;;24.30;71.60;;;;;;5060304;28;20051;-35
2023/08/18 05:16:05;;;;;;;1.20;1.10;;;24.30;71.80;;;;;;5047290;28;20035;-35
2023/08/18 05:18:31;;;;;;;1.30;1.20;;;24.30;71.60;;;;;;5061972;28;20041;-35
2023/08/18 05:20:58;;;;;;;1.83;1.10;;;24.30;71.60;;;;;;5067840;28;20025;-35
2023/08/18 05:23:24;;;;;;;1.42;1.33;;;24.30;71.80;;;;;;5053368;28;20034;-35
2023/08/18 05:25:54;;;;;;;1.05;0.95;;;24.20;71.60;;;;;;5058912;28;20053;-35
2023/08/18 05:28:24;;;;;;;1.10;1.10;;;24.20;71.80;;;;;;5056777;28;20044;-34
2023/08/18 05:30:51;;;;;;;1.10;1.00;;;24.20;71.70;;;;;;5058772;28;20163;-35
2023/08/18 05:33:17;;;;;;;1.40;1.30;;;24.20;71.80;;;;;;5053855;28;20041;-34
2023/08/18 05:35:44;;;;;;;1.08;1.00;;;24.20;71.80;;;;;;5018302;28;20037;-35
2023/08/18 05:38:13;;;;;;;1.23;1.10;;;24.20;71.90;;;;;;5052082;28;20059;-35
2023/08/18 05:40:44;;;;;;;1.27;1.15;;;24.20;72.00;;;;;;5051481;28;20040;-35
2023/08/18 05:43:12;;;;;;;1.42;1.15;;;24.20;72.00;;;;;;5051755;28;20883;-35
2023/08/18 05:45:38;;;;;;;1.40;1.30;;;24.10;71.90;;;;;;5053811;28;20028;-34
2023/08/18 05:48:05;;;;;;;1.30;1.20;;;24.10;72.00;;;;;;5053002;28;20038;-34
2023/08/18 05:50:32;;;;;;;1.10;1.00;;;24.20;72.10;;;;;;5052819;28;20063;-34
2023/08/18 05:53:18;;;;;;;1.38;1.27;;;24.20;72.10;;;;;;5061551;28;20037;-34
2023/08/18 05:55:46;;;;;;;1.23;1.13;;;24.10;72.10;;;;;;4982895;28;20443;-34
2023/08/18 05:58:13;;;;;;;1.50;1.40;;;24.10;72.10;;;;;;4982446;28;20043;-34
2023/08/18 06:00:39;;;;;;;1.50;1.40;;;24.10;72.20;;;;;;4982982;28;20054;-34
2023/08/18 06:03:05;;;;;;;1.77;1.13;;;24.10;72.30;;;;;;4983302;28;20287;-34
2023/08/18 06:05:33;;;;;;;1.05;1.05;;;24.10;72.20;;;;;;4979660;28;20035;-34
2023/08/18 06:07:59;;;;;;;1.98;1.02;;;24.10;72.30;;;;;;4982228;28;20064;-33
2023/08/18 06:10:25;;;;;;;1.30;1.20;;;24.10;72.30;;;;;;4982455;28;20050;-34
2023/08/18 06:12:52;;;;;;;1.30;1.20;;;24.10;72.30;;;;;;4981505;28;20046;-34
2023/08/18 06:15:19;;;;;;;1.20;1.10;;;24.10;72.30;;;;;;4983030;28;20086;-34
2023/08/18 06:17:45;;;;;;;1.65;1.25;;;24.10;72.50;;;;;;4956251;28;20046;-34
2023/08/18 06:20:12;;;;;;;1.33;1.20;;;24.10;72.40;;;;;;4970475;28;20113;-35
2023/08/18 06:22:38;;;;;;;1.45;1.05;;;24.10;72.60;;;;;;4974354;28;20342;-34
2023/08/18 06:25:08;;;;;;;1.37;1.27;;;24.00;72.50;;;;;;4976067;28;20038;-34
2023/08/18 06:27:34;;;;;;;2.03;1.10;;;24.00;72.50;;;;;;4976412;28;20049;-34
2023/08/18 06:30:00;;;;;;;1.60;1.50;;;24.00;72.50;;;;;;4979043;28;20038;-34
2023/08/18 06:32:26;;;;;;;1.30;1.20;;;24.00;72.60;;;;;;5002824;28;20041;-34
2023/08/18 06:34:52;;;;;;;1.77;1.40;;;24.00;72.50;;;;;;5049885;28;20105;-34
2023/08/18 06:37:19;;;;;;;1.67;1.17;;;24.00;72.50;;;;;;5046161;28;20087;-37
2023/08/18 06:39:45;;;;;;;1.50;1.40;;;24.00;72.60;;;;;;5048945;28;20039;-34
2023/08/18 06:42:14;;;;;;;1.50;1.08;;;24.00;72.60;;;;;;5044307;28;20101;-34
2023/08/18 06:44:41;;;;;;;1.30;1.20;;;24.00;72.60;;;;;;5046150;28;20090;-35
2023/08/18 06:47:07;;;;;;;2.97;1.10;;;24.00;72.60;;;;;;5054865;28;20033;-34
2023/08/18 06:49:33;;;;;;;0.95;0.95;;;24.00;72.60;;;;;;5055882;28;20036;-34
2023/08/18 06:51:59;;;;;;;1.33;1.20;;;24.00;73.40;;;;;;5055418;28;20029;-33
2023/08/18 06:54:25;;;;;;;1.40;1.30;;;23.90;72.50;;;;;;5060417;28;20040;-34
2023/08/18 06:56:52;;;;;;;1.20;1.10;;;23.90;72.70;;;;;;5055958;28;20029;-34
2023/08/18 06:59:18;;;;;;;2.50;1.42;;;23.90;72.70;;;;;;5061707;28;20028;-34
2023/08/18 07:01:44;;;;;;;1.17;1.10;;;23.90;72.70;;;;;;5057346;28;20029;-33
2023/08/18 07:04:10;;;;;;;1.20;1.10;;;23.90;72.80;;;;;;5053367;28;20033;-34
2023/08/18 07:06:36;;;;;;;1.27;1.17;;;23.90;72.80;;;;;;5044341;28;20044;-33
2023/08/18 07:09:08;;;;;;;1.15;1.05;;;23.90;72.70;;;;;;5052674;28;20022;-34
2023/08/18 07:11:36;;;;;;;1.00;0.93;;;23.80;72.70;;;;;;5062040;28;20044;-34
2023/08/18 07:14:03;;;;;;;1.38;1.15;;;23.90;72.80;;;;;;5045531;28;20025;-34
2023/08/18 07:16:29;;;;;;;;;;;23.80;72.80;;;;;;5059139;28;20120;-34
2023/08/18 07:18:55;;;;;;;2.05;1.30;;;23.80;72.80;;;;;;5054856;28;19912;-34
2023/08/18 07:21:21;;;;;;;2.47;2.00;;;23.80;72.70;;;;;;5057017;28;20039;-34
2023/08/18 07:23:48;;;;;;;7.03;5.13;;;23.80;72.80;;;;;;5066105;28;20024;-34
2023/08/18 07:26:16;;;;;;;9.15;6.95;;;23.80;72.80;;;;;;5071940;28;20025;-34
2023/08/18 07:28:42;;;;;;;14.60;8.40;;;23.80;72.90;;;;;;5065543;28;20075;-34
2023/08/18 07:31:09;;;;;;;11.73;8.57;;;23.80;73.00;;;;;;5074835;28;20108;-34
2023/08/18 07:33:36;;;;;;;11.98;8.73;;;23.80;73.00;;;;;;5059126;28;20302;-34
2023/08/18 07:36:02;;;;;;;10.50;8.27;;;23.80;73.00;;;;;;5060396;28;20426;-34
2023/08/18 07:38:32;;;;;;;11.25;8.68;;;23.80;73.00;;;;;;5063342;28;20029;-34
2023/08/18 07:40:59;;;;;;;10.82;7.60;;;23.80;73.00;;;;;;5061812;28;20088;-34
2023/08/18 07:43:25;;;;;;;11.60;8.10;;;23.80;73.00;;;;;;5053030;28;20035;-35
2023/08/18 07:45:51;;;;;;;9.63;7.50;;;23.70;73.00;;;;;;5066779;28;20021;-34
2023/08/18 07:48:17;;;;;;;6.90;6.18;;;23.70;73.00;;;;;;5060824;28;20044;-34
2023/08/18 07:50:44;;;;;;;7.87;6.60;;;23.70;73.10;;;;;;5069799;28;20129;-34
2023/08/18 07:53:10;;;;;;;9.07;6.50;;;23.70;73.10;;;;;;5062901;28;20032;-34
2023/08/18 07:55:36;;;;;;;7.88;5.85;;;23.70;73.00;;;;;;5070274;28;20543;-34
2023/08/18 07:58:04;;;;;;;6.95;5.32;;;23.70;73.00;;;;;;5061481;28;20039;-34
2023/08/18 08:00:30;;;;;;;6.72;5.53;;;23.70;73.10;;;;;;5061313;28;20840;-34
2023/08/18 08:02:57;;;;;;;7.35;5.40;;;23.70;73.20;;;;;;5072879;28;20048;-34
2023/08/18 08:05:23;;;;;;;5.57;4.90;;;23.70;73.20;;;;;;5070489;28;20051;-34
2023/08/18 08:07:49;;;;;;;5.80;5.18;;;23.70;73.20;;;;;;5053954;28;20029;-34
2023/08/18 08:10:16;;;;;;;5.00;4.30;;;23.70;73.20;;;;;;5072972;28;20045;-34
2023/08/18 08:12:42;;;;;;;5.33;4.53;;;23.70;73.20;;;;;;5056584;28;20029;-34
2023/08/18 08:15:09;;;;;;;4.20;3.67;;;23.70;73.30;;;;;;5053407;28;20036;-34
2023/08/18 08:17:36;;;;;;;4.15;3.72;;;23.70;73.30;;;;;;5061713;28;20044;-34
2023/08/18 08:20:17;;;;;;;5.50;3.80;;;23.60;73.20;;;;;;5043401;28;20025;-34
2023/08/18 08:22:45;;;;;;;5.50;3.83;;;23.60;73.20;;;;;;5059659;28;20029;-34
2023/08/18 08:25:12;;;;;;;5.13;3.83;;;23.60;73.20;;;;;;5060678;28;20041;-34
2023/08/18 08:27:39;;;;;;;4.30;3.88;;;23.60;73.30;;;;;;5059186;28;20053;-34
2023/08/18 08:30:07;;;;;;;3.78;3.42;;;23.60;73.30;;;;;;5068950;28;20029;-34
2023/08/18 08:32:33;;;;;;;4.93;3.13;;;23.60;73.40;;;;;;5058258;28;20028;-34
2023/08/18 08:34:59;;;;;;;3.80;3.40;;;23.60;73.30;;;;;;5073187;28;20029;-33
2023/08/18 08:37:26;;;;;;;3.63;2.90;;;23.60;73.30;;;;;;5058745;28;20029;-34
2023/08/18 08:39:52;;;;;;;2.80;2.60;;;23.60;73.50;;;;;;5068301;28;20056;-34
2023/08/18 08:42:18;;;;;;;3.33;3.03;;;23.60;73.50;;;;;;5067907;28;20036;-34
2023/08/18 08:44:44;;;;;;;3.25;2.95;;;23.60;73.50;;;;;;5058606;28;20035;-34
2023/08/18 08:47:11;;;;;;;3.10;2.80;;;23.60;73.50;;;;;;5043387;28;20477;-36
2023/08/18 08:49:37;;;;;;;2.90;2.60;;;23.50;73.40;;;;;;5025655;28;20775;-34
2023/08/18 08:52:07;;;;;;;3.42;2.95;;;23.50;73.50;;;;;;5042572;28;20037;-34
2023/08/18 08:54:38;;;;;;;3.75;2.75;;;23.50;73.40;;;;;;5023246;28;20037;-34
2023/08/18 08:57:08;;;;;;;2.65;2.45;;;23.50;73.40;;;;;;5041512;28;20397;-34
2023/08/18 08:59:34;;;;;;;2.95;2.65;;;23.50;73.50;;;;;;5041153;28;20056;-34
2023/08/18 09:02:00;;;;;;;3.03;2.72;;;23.50;73.50;;;;;;5041313;28;20102;-34
2023/08/18 09:04:26;;;;;;;3.03;2.72;;;23.50;73.60;;;;;;5025220;28;20021;-34
2023/08/18 09:06:52;;;;;;;3.03;2.60;;;23.50;73.50;;;;;;5042064;28;20099;-35
2023/08/18 09:09:19;;;;;;;2.83;2.55;;;23.50;73.70;;;;;;5028283;28;20037;-34
2023/08/18 09:11:48;;;;;;;2.23;2.03;;;23.50;73.60;;;;;;5043564;28;20037;-34
2023/08/18 09:14:15;;;;;;;2.65;2.05;;;23.50;73.70;;;;;;5026691;28;20030;-35
2023/08/18 09:16:44;;;;;;;2.63;2.22;;;23.50;73.80;;;;;;5049696;28;20077;-34
2023/08/18 09:19:15;;;;;;;2.20;2.00;;;23.40;73.70;;;;;;5072276;28;20040;-35
2023/08/18 09:21:41;;;;;;;2.50;2.30;;;23.50;73.80;;;;;;5050850;28;20090;-34
2023/08/18 09:24:08;;;;;;;2.20;2.00;;;23.40;73.80;;;;;;5068025;28;20041;-34
2023/08/18 09:26:34;;;;;;;2.10;1.90;;;23.40;73.70;;;;;;5064721;28;20045;-34
2023/08/18 09:29:00;;;;;;;2.35;2.15;;;23.40;73.80;;;;;;5054645;28;20072;-34
2023/08/18 09:31:26;;;;;;;2.23;2.00;;;23.40;73.80;;;;;;5049365;28;20029;-34
2023/08/18 09:33:52;;;;;;;1.98;1.88;;;23.40;73.80;;;;;;5075146;28;20289;-34
2023/08/18 09:36:18;;;;;;;2.20;2.00;;;23.40;73.90;;;;;;5073680;28;20044;-33
2023/08/18 09:38:45;;;;;;;2.80;2.17;;;23.40;73.80;;;;;;5049025;28;20133;-34
2023/08/18 09:41:12;;;;;;;2.13;1.90;;;23.30;73.80;;;;;;5061587;28;20059;-34
2023/08/18 09:43:38;;;;;;;2.22;2.03;;;23.30;73.80;;;;;;5064723;28;20663;-34
2023/08/18 09:46:06;;;;;;;1.88;1.77;;;23.30;73.80;;;;;;5044292;28;20048;-34
2023/08/18 09:48:37;;;;;;;2.10;1.77;;;23.30;73.80;;;;;;5050995;28;20041;-34
2023/08/18 09:51:07;;;;;;;2.00;1.90;;;23.30;73.80;;;;;;5046445;28;20037;-34
2023/08/18 09:53:33;;;;;;;2.13;1.90;;;23.30;73.90;;;;;;5020596;28;20025;-34
2023/08/18 09:56:04;;;;;;;2.10;1.90;;;23.30;73.90;;;;;;5050065;28;20051;-35
2023/08/18 09:58:41;;;;;;;1.58;1.48;;;23.30;74.00;;;;;;5039459;28;20059;-35
2023/08/18 10:01:07;;;;;;;2.23;1.90;;;23.30;74.00;;;;;;5054317;28;20055;-34
2023/08/18 10:03:38;;;;;;;2.15;1.80;;;23.30;74.00;;;;;;5035660;28;20060;-34
2023/08/18 10:06:06;;;;;;;2.13;1.90;;;23.30;74.00;;;;;;5052638;28;20025;-34
2023/08/18 10:08:33;;;;;;;1.70;1.60;;;23.30;74.10;;;;;;5049389;28;20086;-34
2023/08/18 10:11:19;;;;;;;1.90;1.60;;;23.30;74.10;;;;;;4975353;28;20063;-34
2023/08/18 10:13:45;;;;;;;1.73;1.50;;;23.30;74.00;;;;;;4958785;28;20035;-34
2023/08/18 10:16:12;;;;;;;1.92;1.80;;;23.20;74.00;;;;;;4974703;28;20280;-35
2023/08/18 10:18:38;;;;;;;1.70;1.60;;;23.20;74.00;;;;;;4975791;28;20039;-34
2023/08/18 10:21:04;;;;;;;2.05;1.55;;;23.20;74.10;;;;;;4974816;28;20027;-34
2023/08/18 10:23:31;;;;;;;1.33;1.23;;;23.20;74.10;;;;;;4958512;28;20050;-34
2023/08/18 10:25:57;;;;;;;1.58;1.48;;;23.20;74.10;;;;;;4975526;28;20045;-35
2023/08/18 10:28:28;;;;;;;1.75;1.65;;;23.20;74.10;;;;;;4975459;28;20412;-35
2023/08/18 10:31:03;;;;;;;1.60;1.50;;;23.20;74.10;;;;;;4974908;28;20039;-34
2023/08/18 10:33:35;;;;;;;1.55;1.45;;;23.20;74.20;;;;;;4975350;28;20216;-34
2023/08/18 10:36:03;;;;;;;1.70;1.50;;;23.20;74.20;;;;;;4973712;28;20053;-35
2023/08/18 10:38:29;;;;;;;1.50;1.40;;;23.20;74.20;;;;;;4975392;28;21193;-35
2023/08/18 10:40:55;;;;;;;1.73;1.50;;;23.20;74.20;;;;;;4975756;28;20074;-35
2023/08/18 10:43:24;;;;;;;1.40;1.30;;;23.20;74.20;;;;;;4974466;28;20058;-35
2023/08/18 10:45:51;;;;;;;1.58;1.48;;;23.20;74.90;;;;;;4961031;28;20323;-34
2023/08/18 10:48:17;;;;;;;1.50;1.40;;;23.10;74.10;;;;;;4997799;28;20041;-34
2023/08/18 10:50:44;;;;;;;2.10;1.50;;;23.10;74.20;;;;;;5077068;28;20459;-35
2023/08/18 10:53:13;;;;;;;;;;;23.10;74.20;;;;;;5043861;28;20025;-35
2023/08/18 10:55:43;;;;;;;1.40;1.30;;;23.10;74.30;;;;;;5076319;28;19912;-34
2023/08/18 10:58:09;;;;;;;2.53;1.50;;;23.10;74.20;;;;;;5056752;28;20063;-34
2023/08/18 11:00:36;;;;;;;1.60;1.48;;;23.10;74.40;;;;;;5030933;28;20055;-34
2023/08/18 11:03:03;;;;;;;1.77;1.67;;;23.10;74.40;;;;;;5055655;28;20034;-34
2023/08/18 11:05:31;;;;;;;1.40;1.30;;;23.10;74.40;;;;;;5073768;28;20048;-34
2023/08/18 11:07:58;;;;;;;1.60;1.50;;;23.10;74.50;;;;;;5066978;28;20589;-34
2023/08/18 11:10:24;;;;;;;1.40;1.30;;;23.10;74.50;;;;;;5059793;28;20033;-35
2023/08/18 11:12:52;;;;;;;2.78;1.30;;;23.10;74.50;;;;;;5054400;28;20029;-34
2023/08/18 11:15:19;;;;;;;1.60;1.48;;;23.10;74.50;;;;;;5067757;28;20088;-35
2023/08/18 11:17:46;;;;;;;1.88;1.33;;;23.10;74.50;;;;;;5068812;28;20456;-34
2023/08/18 11:20:12;;;;;;;2.50;1.50;;;23.10;74.50;;;;;;5079903;28;20038;-34
2023/08/18 11:22:43;;;;;;;3.65;1.40;;;23.10;74.50;;;;;;5031556;28;20046;-34
2023/08/18 11:25:14;;;;;;;1.38;1.27;;;23.00;74.50;;;;;;5062315;28;20063;-34
2023/08/18 11:27:40;;;;;;;2.03;1.50;;;23.00;74.50;;;;;;5046748;28;20032;-33
2023/08/18 11:30:09;;;;;;;1.40;1.30;;;23.00;74.50;;;;;;5053281;28;20047;-34
2023/08/18 11:32:35;;;;;;;1.48;1.38;;;23.00;74.60;;;;;;5055118;28;20577;-34
2023/08/18 11:35:01;;;;;;;1.60;1.38;;;23.00;74.60;;;;;;5055177;28;20045;-34
2023/08/18 11:37:28;;;;;;;1.40;1.30;;;23.00;74.60;;;;;;5042168;28;20048;-34
2023/08/18 11:39:54;;;;;;;1.70;1.25;;;23.00;74.70;;;;;;5061795;28;20036;-34
2023/08/18 11:42:20;;;;;;;1.60;1.50;;;23.00;74.60;;;;;;5069469;28;20044;-34
2023/08/18 11:44:50;;;;;;;1.50;1.40;;;23.00;74.60;;;;;;5058576;28;20688;-34
2023/08/18 11:47:17;;;;;;;1.40;1.30;;;23.00;74.70;;;;;;5041442;28;20036;-34
2023/08/18 11:49:45;;;;;;;1.42;1.33;;;23.00;74.70;;;;;;5061216;28;20056;-34
2023/08/18 11:52:13;;;;;;;1.50;1.35;;;23.00;74.70;;;;;;5068499;28;20032;-34
2023/08/18 11:54:41;;;;;;;1.40;1.30;;;23.00;74.70;;;;;;5061037;28;20036;-34
2023/08/18 11:57:08;;;;;;;1.55;1.30;;;23.00;74.70;;;;;;5051486;28;20025;-34
2023/08/18 11:59:34;;;;;;;1.25;1.15;;;23.00;74.70;;;;;;5060590;28;20088;-34
2023/08/18 12:02:01;;;;;;;1.40;1.30;;;23.00;74.70;;;;;;5059939;28;20041;-34
2023/08/18 12:04:28;;;;;;;;;;;22.90;74.80;;;;;;5060291;28;20053;-34
2023/08/18 12:06:54;;;;;;;1.58;1.48;;;22.90;74.70;;;;;;5060497;28;19948;-35
2023/08/18 12:09:20;;;;;;;1.35;1.25;;;22.90;74.70;;;;;;5053134;28;20035;-34
2023/08/18 12:11:47;;;;;;;1.30;1.20;;;23.00;74.80;;;;;;5053782;28;20041;-34
2023/08/18 12:14:13;;;;;;;1.63;1.50;;;22.90;74.80;;;;;;5053464;28;20090;-34
2023/08/18 12:16:41;;;;;;;1.88;1.30;;;22.90;74.80;;;;;;5059444;28;20115;-34
2023/08/18 12:19:07;;;;;;;1.40;1.30;;;22.90;74.90;;;;;;5057033;28;20036;-34
2023/08/18 12:21:36;;;;;;;2.90;1.33;;;22.90;74.90;;;;;;5053275;28;20040;-34
2023/08/18 12:24:05;;;;;;;1.63;1.52;;;22.90;74.90;;;;;;5057916;28;20099;-34
2023/08/18 12:26:35;;;;;;;1.20;1.10;;;22.90;75.00;;;;;;5023621;28;20033;-34
2023/08/18 12:29:03;;;;;;;1.30;1.20;;;22.90;75.00;;;;;;5055923;28;20104;-34
2023/08/18 12:31:30;;;;;;;1.45;1.13;;;22.90;75.00;;;;;;5054358;28;20043;-34
2023/08/18 12:33:57;;;;;;;2.17;1.40;;;22.90;75.00;;;;;;5059974;28;20057;-34
2023/08/18 12:36:23;;;;;;;1.40;1.30;;;22.90;75.00;;;;;;5057005;28;20067;-34
2023/08/18 12:38:49;;;;;;;1.55;1.35;;;22.90;75.70;;;;;;5060203;28;20040;-34
2023/08/18 12:41:16;;;;;;;1.58;1.48;;;22.90;75.00;;;;;;5054156;28;20083;-35
2023/08/18 12:43:42;;;;;;;1.45;1.35;;;22.90;75.10;;;;;;5051654;28;20036;-34
2023/08/18 12:46:08;;;;;;;3.40;1.60;;;22.80;74.90;;;;;;5052223;28;20702;-34
2023/08/18 12:48:34;;;;;;;2.50;1.47;;;22.90;75.00;;;;;;5059095;28;20365;-34